Latest Weather Observations for Bushy Park

IDT60901

Issued at 6:11 am EST Tuesday 28 June 2016 (issued every 10 minutes, with the page automatically refreshed every 10 minutes)

About weather observations | Map of Hobart area stations | Latest observations for Hobart area | Other Formats
Station Details ID: 095003 Name: BUSHY PARK (BUSHY PARK ESTATES) Lat: -42.71 Lon: 146.90 Height: 27.0 m
Data from the previous 72 hours. | See also: Recent months at Bushy Park
Date/Time
EST
Temp
°C
App
Temp
°C
Dew
Point
°C
Rel
Hum
%
Delta-T
°C
Wind Press
QNH
hPa
Press
MSL
hPa
Rain since
9am
mm
Dir  Spd
km/h
Gust
km/h
Spd
kts
Gust
kts
28/06:00am 4.5 2.0 3.8 95 0.3 NNW 6 9 3 5 - - 0.2
28/05:30am 4.2 1.5 3.7 97 0.2 SW 7 9 4 5 - - 0.0
28/05:00am 4.2 2.4 3.5 95 0.3 N 2 7 1 4 - - 0.0
28/04:30am 4.2 1.7 3.5 95 0.3 W 6 7 3 4 - - 0.0
28/04:00am 3.9 2.0 2.9 93 0.4 SSW 2 7 1 4 - - 0.0
28/03:30am 4.1 2.2 3.1 93 0.4 N 2 11 1 6 - - 0.0
28/03:00am 3.9 2.0 2.7 92 0.5 N 2 9 1 5 - - 0.0
28/02:30am 4.3 1.6 2.8 90 0.6 N 6 9 3 5 - - 0.0
28/02:00am 4.9 2.3 3.0 87 0.8 N 6 9 3 5 - - 0.0
28/01:30am 7.2 3.4 3.7 78 1.5 N 13 19 7 10 - - 0.0
28/01:00am 7.8 3.2 3.9 76 1.7 N 17 24 9 13 - - 0.0
28/12:30am 4.9 0.1 2.7 86 0.9 NNW 17 24 9 13 - - 0.0
28/12:00am 7.6 3.7 3.4 75 1.8 NNW 13 17 7 9 - - 0.0
 
Date/Time
EST
Temp
°C
App
Temp
°C
Dew
Point
°C
Rel
Hum
%
Delta-T
°C
Wind Press
QNH
hPa
Press
MSL
hPa
Rain since
9am
mm
Dir  Spd
km/h
Gust
km/h
Spd
kts
Gust
kts
27/11:30pm 8.2 3.6 3.6 73 2.0 NNW 17 22 9 12 - - 0.0
27/11:00pm 7.8 3.9 3.4 74 1.9 NW 13 20 7 11 - - 0.0
27/10:30pm 6.9 2.3 3.6 79 1.4 WNW 17 26 9 14 - - 0.0
27/10:00pm 3.6 0.2 1.8 88 0.7 W 9 15 5 8 - - 0.0
27/09:30pm 4.4 2.8 2.4 87 0.8 CALM 0 0 0 0 - - 0.0
27/09:00pm 4.5 1.1 2.0 84 1.0 W 9 13 5 7 - - 0.0
27/08:30pm 4.3 0.6 2.1 86 0.9 WSW 11 17 6 9 - - 0.0
27/08:00pm 3.8 0.8 2.1 89 0.7 NW 7 11 4 6 - - 0.0
27/07:30pm 4.2 1.2 2.2 87 0.8 N 7 11 4 6 - - 0.0
27/07:00pm 4.5 1.2 2.5 87 0.8 NNW 9 11 5 6 - - 0.0
27/06:30pm 6.3 2.6 2.4 76 1.6 NW 11 13 6 7 - - 0.0
27/06:00pm 5.4 2.1 2.7 83 1.1 N 9 11 5 6 - - 0.0
27/05:30pm 7.7 3.7 2.7 70 2.1 WNW 13 15 7 8 - - 0.0
27/05:00pm 8.2 5.0 2.8 69 2.3 NW 9 11 5 6 - - 0.0
27/04:30pm 8.1 6.6 3.2 71 2.1 CALM 0 0 0 0 - - 0.0
27/04:00pm 9.5 6.7 3.3 65 2.7 NW 7 9 4 5 - - 0.0
27/03:30pm 11.6 8.0 2.7 54 3.9 W 11 17 6 9 - - 0.0
27/03:00pm 12.1 8.4 2.3 51 4.2 W 11 28 6 15 - - 0.0
27/02:30pm 12.4 8.2 1.5 47 4.6 NNW 13 22 7 12 - - 0.0
27/02:00pm 13.5 9.3 1.9 45 5.0 N 13 19 7 10 - - 0.0
27/01:30pm 12.7 7.8 1.9 47 4.7 W 17 30 9 16 - - 0.0
27/01:00pm 12.0 7.9 2.4 52 4.2 N 13 19 7 10 - - 0.0
27/12:30pm 12.7 8.2 1.9 47 4.7 W 15 30 8 16 - - 0.0
27/12:00pm 12.3 7.2 2.8 52 4.2 N 19 33 10 18 - - 0.0
27/11:30am 12.4 8.7 4.6 59 3.6 N 13 19 7 10 - - 0.0
27/11:00am 10.3 7.9 5.1 70 2.4 WNW 7 11 4 6 - - 0.0
27/10:30am 9.3 6.9 5.1 75 1.9 S 7 11 4 6 - - 0.0
27/10:00am 8.0 5.8 5.1 82 1.3 NE 6 9 3 5 - - 0.0
27/09:30am 6.5 4.2 4.7 88 0.8 NNW 6 11 3 6 - - 0.0
27/09:00am 5.1 3.9 4.6 97 0.2 CALM 0 9 0 5 - - 0.2
27/08:30am 4.5 1.9 4.0 97 0.2 NW 7 11 4 6 - - 0.2
27/08:00am 2.8 1.1 2.0 94 0.3 CALM 0 6 0 3 - - 0.2
27/07:30am 3.4 1.1 2.9 97 0.2 N 4 13 2 7 - - 0.2
27/07:00am 3.6 0.4 2.9 95 0.3 SSE 9 13 5 7 - - 0.2
27/06:30am 3.5 1.2 2.8 95 0.3 N 4 11 2 6 - - 0.2
27/06:00am 4.1 1.3 3.4 95 0.3 E 7 9 4 5 - - 0.2
27/05:30am 4.2 0.6 3.2 93 0.4 NNW 11 15 6 8 - - 0.2
27/05:00am 6.0 3.5 4.9 93 0.5 W 7 11 4 6 - - 0.2
27/04:30am 5.1 2.1 4.2 94 0.4 NNW 9 11 5 6 - - 0.2
27/04:00am 5.7 3.1 4.3 91 0.6 NNE 7 9 4 5 - - 0.2
27/03:30am 6.2 3.7 4.6 89 0.7 N 7 9 4 5 - - 0.2
27/03:00am 6.4 4.8 4.6 88 0.8 N 2 7 1 4 - - 0.2
27/02:30am 6.9 4.3 4.4 84 1.1 NW 7 9 4 5 - - 0.2
27/02:00am 5.9 3.2 3.8 86 0.9 S 7 17 4 9 - - 0.2
27/01:30am 5.7 2.6 3.6 86 0.9 ENE 9 9 5 5 - - 0.2
27/01:00am 6.5 3.8 3.7 82 1.2 WNW 7 11 4 6 - - 0.2
27/12:30am 8.2 4.3 3.6 73 2.0 NNW 13 17 7 9 - - 0.2
27/12:00am 8.1 4.2 3.5 73 2.0 NNW 13 17 7 9 - - 0.2
 
Date/Time
EST
Temp
°C
App
Temp
°C
Dew
Point
°C
Rel
Hum
%
Delta-T
°C
Wind Press
QNH
hPa
Press
MSL
hPa
Rain since
9am
mm
Dir  Spd
km/h
Gust
km/h
Spd
kts
Gust
kts
26/11:30pm 8.4 3.7 3.3 70 2.2 N 17 22 9 12 - - 0.2
26/11:00pm 8.3 4.0 3.2 70 2.2 N 15 19 8 10 - - 0.2
26/10:30pm 8.1 3.8 3.5 73 2.0 N 15 19 8 10 - - 0.2
26/10:00pm 7.5 2.9 3.8 77 1.6 N 17 20 9 11 - - 0.2
26/09:30pm 8.4 4.6 3.8 73 2.0 N 13 15 7 8 - - 0.2
26/09:00pm 6.4 3.0 4.1 85 1.0 NNW 11 13 6 7 - - 0.2
26/08:30pm 6.1 2.3 4.0 86 0.9 N 13 20 7 11 - - 0.2
26/08:00pm 6.6 2.8 4.1 84 1.1 N 13 17 7 9 - - 0.2
26/07:30pm 6.9 3.9 4.1 82 1.2 N 9 11 5 6 - - 0.2
26/07:00pm 8.5 6.0 4.5 76 1.8 NNE 7 11 4 6 - - 0.2
26/06:30pm 9.9 5.6 3.5 64 2.8 N 15 19 8 10 - - 0.2
26/06:00pm 9.1 5.4 4.6 73 2.0 N 13 19 7 10 - - 0.2
26/05:30pm 9.9 5.4 4.3 68 2.5 N 17 20 9 11 - - 0.2
26/05:00pm 9.9 6.7 5.3 73 2.1 N 11 15 6 8 - - 0.2
26/04:30pm 11.0 7.3 4.4 64 3.0 N 13 17 7 9 - - 0.2
26/04:00pm 11.3 6.9 4.5 63 3.1 N 17 20 9 11 - - 0.2
26/03:30pm 11.8 7.4 4.6 61 3.3 N 17 22 9 12 - - 0.2
26/03:00pm 12.0 6.6 4.6 60 3.4 N 22 32 12 17 - - 0.2
26/02:30pm 12.9 7.1 4.4 56 3.9 N 24 35 13 19 - - 0.2
26/02:00pm 12.9 7.5 4.4 56 3.9 N 22 30 12 16 - - 0.2
26/01:30pm 12.9 10.4 6.5 65 3.1 N 9 11 5 6 - - 0.2
26/01:00pm 12.7 11.1 6.2 64 3.1 SSE 4 7 2 4 - - 0.0
26/12:30pm 11.5 9.3 6.2 70 2.5 SW 7 9 4 5 - - 0.0
26/12:00pm 10.2 8.1 5.9 74 2.0 S 6 7 3 4 - - 0.0
26/11:30am 8.9 7.1 5.4 79 1.6 ESE 4 7 2 4 - - 0.0
26/11:00am 7.9 6.5 5.5 85 1.1 E 2 7 1 4 - - 0.0
26/10:30am 7.1 5.9 4.8 85 1.0 CALM 0 0 0 0 - - 0.0
26/10:00am 6.2 4.1 4.1 86 0.9 SE 4 7 2 4 - - 0.0
26/09:30am 5.1 3.1 4.6 97 0.2 NNE 4 7 2 4 - - 0.0
26/09:00am 3.1 1.2 2.6 96 0.2 N 2 9 1 5 - - 0.0
26/08:30am 2.4 0.7 2.1 98 0.1 CALM 0 0 0 0 - - 0.0
26/08:00am 0.9 -1.0 0.4 96 0.2 CALM 0 0 0 0 - - 0.0
26/07:30am 1.2 -0.6 0.9 98 0.1 CALM 0 0 0 0 - - 0.0
26/07:00am 1.8 -1.1 1.5 98 0.1 N 6 7 3 4 - - 0.0
26/06:30am 2.3 0.2 1.8 96 0.2 N 2 9 1 5 - - 0.0
26/06:00am 2.7 -0.1 2.2 96 0.2 NNW 6 7 3 4 - - 0.0
26/05:30am 2.6 -0.4 2.3 98 0.1 NW 7 13 4 7 - - 0.0
26/05:00am 3.3 0.6 2.8 97 0.2 N 6 9 3 5 - - 0.0
26/04:30am 3.8 1.0 3.3 97 0.2 NW 7 9 4 5 - - 0.0
26/04:00am 4.6 2.0 4.1 97 0.2 N 7 9 4 5 - - 0.0
26/03:30am 4.6 2.1 3.9 95 0.3 N 6 7 3 4 - - 0.0
26/03:00am 4.5 2.0 4.0 97 0.2 N 6 7 3 4 - - 0.0
26/02:30am 4.3 1.6 3.8 97 0.2 N 7 7 4 4 - - 0.0
26/02:00am 4.2 2.0 3.5 95 0.3 N 4 7 2 4 - - 0.0
26/01:30am 3.9 1.3 3.4 97 0.2 SW 6 9 3 5 - - 0.0
26/01:00am 3.6 1.4 3.1 97 0.2 N 4 7 2 4 - - 0.0
26/12:30am 3.7 1.8 3.0 95 0.3 E 2 6 1 3 - - 0.0
26/12:00am 3.1 0.8 2.6 96 0.2 ESE 4 9 2 5 - - 0.0
 
Date/Time
EST
Temp
°C
App
Temp
°C
Dew
Point
°C
Rel
Hum
%
Delta-T
°C
Wind Press
QNH
hPa
Press
MSL
hPa
Rain since
9am
mm
Dir  Spd
km/h
Gust
km/h
Spd
kts
Gust
kts
25/11:30pm 2.7 1.1 2.2 96 0.2 CALM 0 0 0 0 - - 0.0
25/11:00pm 2.9 0.9 2.4 96 0.2 E 2 6 1 3 - - 0.0
25/10:30pm 2.9 0.1 2.1 94 0.3 S 6 9 3 5 - - 0.0
25/10:00pm 2.7 1.1 2.2 96 0.2 CALM 0 4 0 2 - - 0.0
25/09:30pm 3.0 0.2 2.2 94 0.3 WNW 6 7 3 4 - - 0.0
25/09:00pm 3.5 1.6 3.0 97 0.2 N 2 7 1 4 - - 0.0
25/08:30pm 3.6 0.4 3.1 97 0.2 NNW 9 13 5 7 - - 0.0
25/08:00pm 4.0 0.9 3.5 97 0.2 NNW 9 9 5 5 - - 0.0
25/07:30pm 5.0 1.9 3.8 92 0.5 N 9 11 5 6 - - 0.0
25/07:00pm 5.4 2.4 4.0 91 0.6 NNW 9 11 5 6 - - 0.0
25/06:30pm 5.8 2.9 4.4 91 0.6 NW 9 11 5 6 - - 0.0
25/06:00pm 6.5 4.6 4.7 88 0.8 WNW 4 7 2 4 - - 0.0
25/05:30pm 7.2 4.7 5.0 86 1.0 N 7 9 4 5 - - 0.0
25/05:00pm 7.6 5.4 5.1 84 1.1 WNW 6 9 3 5 - - 0.0
25/04:30pm 8.3 5.8 5.0 80 1.5 WNW 7 9 4 5 - - 0.0
25/04:00pm 8.7 6.2 4.7 76 1.8 NNE 7 9 4 5 - - 0.0
25/03:30pm 8.8 7.6 4.5 74 1.9 CALM 0 0 0 0 - - 0.0
25/03:00pm 9.4 6.8 4.0 69 2.4 WSW 7 9 4 5 - - 0.0
25/02:30pm 10.4 7.6 3.1 60 3.2 WSW 7 9 4 5 - - 0.0
25/02:00pm 9.4 6.3 3.5 66 2.6 W 9 13 5 7 - - 0.0
25/01:30pm 9.4 6.7 2.4 61 3.0 NNE 6 9 3 5 - - 0.0
25/01:00pm 8.9 5.5 2.0 62 2.9 SSE 9 13 5 7 - - 0.0
25/12:30pm 9.7 6.7 1.9 58 3.3 ENE 7 11 4 6 - - 0.0
25/12:00pm 9.0 5.6 2.1 62 2.9 S 9 11 5 6 - - 0.0
25/11:30am 9.1 5.8 2.6 64 2.8 N 9 13 5 7 - - 0.0
25/11:00am 8.9 6.0 1.2 58 3.1 E 6 9 3 5 - - 0.0
25/10:30am 7.8 4.3 1.2 63 2.7 NE 9 13 5 7 - - 0.0
25/10:00am 6.4 3.0 1.7 72 1.9 NNE 9 11 5 6 - - 0.0
25/09:30am 4.7 1.6 1.4 79 1.3 NNE 7 9 4 5 - - 0.0
25/09:00am 2.2 -1.7 1.2 93 0.4 NNW 11 15 6 8 - - 0.0
25/08:30am 0.9 -2.8 0.1 94 0.3 NW 9 11 5 6 - - 0.0
25/08:00am 0.2 - - - - NW 11 13 6 7 - - 0.0
25/07:30am -0.6 - - - - NE 6 9 3 5 - - 0.0
25/07:00am -0.1 - - - - N 6 9 3 5 - - 0.0
25/06:30am 0.0 - - - - N 6 7 3 4 - - 0.0

Latest Capital City Observations: Canberra | Sydney | Melbourne | Brisbane | Adelaide | Perth | Hobart | Darwin

Other Formats:

Comma delimited format used in spreadsheet applications
http://www.bom.gov.au/fwo/IDT60901/IDT60901.94964.axf

JavaScript Object Notation format (JSON) in row-major order
http://www.bom.gov.au/fwo/IDT60901/IDT60901.94964.json